createdAt,value
2019-04-26T03:00:43.246Z,9.30
2019-04-26T03:01:43.303Z,9.26
2019-04-26T03:02:43.215Z,9.22
2019-04-26T03:03:43.225Z,9.24
2019-04-26T03:04:43.201Z,9.20
2019-04-26T03:05:43.180Z,9.16
2019-04-26T03:06:43.489Z,9.06
2019-04-26T03:07:43.162Z,9.08
2019-04-26T03:08:43.151Z,9.10
2019-04-26T03:09:43.335Z,9.03
2019-04-26T03:10:43.527Z,9.01
2019-04-26T03:11:43.431Z,8.91
2019-04-26T03:12:43.255Z,8.89
2019-04-26T03:13:43.727Z,8.97
2019-04-26T03:14:43.088Z,8.89
2019-04-26T03:15:43.075Z,8.98
2019-04-26T03:16:43.130Z,8.88
2019-04-26T03:17:43.134Z,8.88
2019-04-26T03:18:43.121Z,8.85
2019-04-26T03:19:43.248Z,8.88
2019-04-26T03:20:43.046Z,8.80
2019-04-26T03:21:43.366Z,8.79
2019-04-26T03:22:43.023Z,8.78
2019-04-26T03:23:57.156Z,8.71
2019-04-26T03:24:43.977Z,8.67
2019-04-26T03:25:42.976Z,8.71
2019-04-26T03:26:43.433Z,8.67
2019-04-26T03:27:43.521Z,8.63
2019-04-26T03:28:43.690Z,8.61
2019-04-26T03:29:43.768Z,8.58
2019-04-26T03:30:51.106Z,8.60
2019-04-26T03:31:52.995Z,8.52
2019-04-26T03:32:50.475Z,8.50
2019-04-26T03:33:53.143Z,8.49
2019-04-26T03:34:53.635Z,8.43
2019-04-26T03:35:55.471Z,8.42
2019-04-26T03:36:44.300Z,8.40
2019-04-26T03:37:44.559Z,8.29
2019-04-26T03:38:43.599Z,8.32
2019-04-26T03:39:44.433Z,8.20
2019-04-26T03:40:44.534Z,8.31
2019-04-26T03:41:44.330Z,8.28
2019-04-26T03:42:44.099Z,8.21
2019-04-26T03:43:44.525Z,8.21
2019-04-26T03:44:44.144Z,8.13
2019-04-26T03:45:44.533Z,8.09
2019-04-26T03:46:43.668Z,8.12
2019-04-26T03:47:45.506Z,8.17
2019-04-26T03:48:43.662Z,8.13
2019-04-26T03:49:44.225Z,8.04
2019-04-26T03:50:42.857Z,8.14
2019-04-26T03:51:43.123Z,8.00
2019-04-26T03:52:44.103Z,8.00
2019-04-26T03:53:44.428Z,8.02
2019-04-26T03:54:42.850Z,7.99
2019-04-26T03:55:43.755Z,7.99
2019-04-26T03:56:43.565Z,8.02
2019-04-26T03:57:44.221Z,8.00
2019-04-26T03:58:43.617Z,8.04
2019-04-26T03:59:44.038Z,8.03
2019-04-26T04:00:43.357Z,7.96
2019-04-26T04:01:43.220Z,7.95
2019-04-26T04:02:43.577Z,7.95
2019-04-26T04:03:45.108Z,7.96
2019-04-26T04:04:43.271Z,7.92
2019-04-26T04:05:44.228Z,7.82
2019-04-26T04:07:02.498Z,7.84
2019-04-26T04:07:47.848Z,7.88
2019-04-26T04:08:44.681Z,7.89
2019-04-26T04:09:42.884Z,7.84
2019-04-26T04:10:44.121Z,7.88
2019-04-26T04:11:44.312Z,7.74
2019-04-26T04:12:44.428Z,7.79
2019-04-26T04:13:45.692Z,7.76
2019-04-26T04:14:45.026Z,7.73
2019-04-26T04:15:44.058Z,7.74
2019-04-26T04:16:43.518Z,7.76
2019-04-26T04:17:45.343Z,7.79
2019-04-26T04:18:43.845Z,7.82
2019-04-26T04:19:43.865Z,7.85
2019-04-26T04:20:42.956Z,7.79
2019-04-26T04:21:44.191Z,7.79
2019-04-26T04:22:43.934Z,7.81
2019-04-26T04:23:43.509Z,7.77
2019-04-26T04:24:43.565Z,7.76
2019-04-26T04:25:43.813Z,7.77
2019-04-26T04:26:43.414Z,7.69
2019-04-26T04:27:43.910Z,7.79
2019-04-26T04:28:43.965Z,7.81
2019-04-26T04:29:50.609Z,7.77
2019-04-26T04:30:43.993Z,7.76
2019-04-26T04:31:43.671Z,7.76
2019-04-26T04:32:43.792Z,7.76
2019-04-26T04:33:43.602Z,7.77
2019-04-26T04:34:43.991Z,7.89
2019-04-26T04:35:43.903Z,7.81
2019-04-26T04:36:44.057Z,7.77
2019-04-26T04:38:01.654Z,7.76
2019-04-26T04:38:44.591Z,7.73
2019-04-26T04:39:44.271Z,7.71
2019-04-26T04:40:42.656Z,7.73
2019-04-26T04:41:42.995Z,7.73
2019-04-26T04:42:43.574Z,7.71
2019-04-26T04:43:44.187Z,7.71
2019-04-26T04:44:43.059Z,7.69
2019-04-26T04:45:43.547Z,7.70
2019-04-26T04:46:43.850Z,7.77
2019-04-26T04:47:45.168Z,7.76
2019-04-26T04:48:43.287Z,7.76
2019-04-26T04:49:43.049Z,7.73
2019-04-26T04:50:43.178Z,7.79
2019-04-26T04:51:42.826Z,7.81
2019-04-26T04:52:43.245Z,7.79
2019-04-26T04:53:43.429Z,7.79
2019-04-26T04:54:43.277Z,7.77
2019-04-26T04:55:43.476Z,7.84
2019-04-26T04:56:41.963Z,7.84
2019-04-26T04:57:42.043Z,7.81
2019-04-26T04:58:43.284Z,7.86
2019-04-26T04:59:41.928Z,7.85
2019-04-26T05:00:43.040Z,7.85
2019-04-26T05:01:42.844Z,7.95
2019-04-26T05:02:42.440Z,7.92
2019-04-26T05:03:42.350Z,7.82
2019-04-26T05:04:42.573Z,7.85
2019-04-26T05:05:43.500Z,7.89
2019-04-26T05:06:42.701Z,7.81
2019-04-26T05:07:43.860Z,7.91
2019-04-26T05:08:42.897Z,7.95
2019-04-26T05:09:41.817Z,7.99
2019-04-26T05:10:41.832Z,7.95
2019-04-26T05:11:41.796Z,8.00
2019-04-26T05:12:41.789Z,8.00
2019-04-26T05:13:41.798Z,8.04
2019-04-26T05:14:41.765Z,8.00
2019-04-26T05:15:41.751Z,7.99
2019-04-26T05:16:41.740Z,7.99
2019-04-26T05:17:41.733Z,8.06
2019-04-26T05:18:41.729Z,8.17
2019-04-26T05:19:41.708Z,7.99
2019-04-26T05:20:41.778Z,8.10
2019-04-26T05:21:41.696Z,8.12
2019-04-26T05:22:41.675Z,8.17
2019-04-26T05:23:41.674Z,8.21
2019-04-26T05:24:41.659Z,8.29
2019-04-26T05:25:41.647Z,8.28
2019-04-26T05:26:41.632Z,8.18
2019-04-26T05:27:41.625Z,8.24
2019-04-26T05:28:41.620Z,8.27
2019-04-26T05:29:41.602Z,8.13
2019-04-26T05:30:41.594Z,8.29
2019-04-26T05:31:41.641Z,8.28
2019-04-26T05:32:41.566Z,8.22
2019-04-26T05:33:41.566Z,8.22
2019-04-26T05:34:41.567Z,8.21
2019-04-26T05:35:41.537Z,8.25
2019-04-26T05:36:41.533Z,8.24
2019-04-26T05:37:41.521Z,8.18
2019-04-26T05:38:41.531Z,8.22
2019-04-26T05:39:41.520Z,8.24
2019-04-26T05:40:41.819Z,8.25
2019-04-26T05:41:41.473Z,8.36
2019-04-26T05:42:41.460Z,8.32
2019-04-26T05:43:41.457Z,8.32
2019-04-26T05:44:41.435Z,8.28
2019-04-26T05:45:41.426Z,8.29
2019-04-26T05:46:41.419Z,8.34
2019-04-26T05:47:41.402Z,8.39
2019-04-26T05:48:41.404Z,8.37
2019-04-26T05:49:41.383Z,8.37
2019-04-26T05:50:41.386Z,8.45
2019-04-26T05:51:41.380Z,8.40
2019-04-26T05:52:41.349Z,8.46
2019-04-26T05:53:41.346Z,8.46
2019-04-26T05:54:41.360Z,8.47
2019-04-26T05:55:41.315Z,8.46
2019-04-26T05:56:41.329Z,8.45
2019-04-26T05:57:41.295Z,8.47
2019-04-26T05:58:41.316Z,8.43
2019-04-26T05:59:41.279Z,8.46
2019-04-26T06:00:41.262Z,8.37
2019-04-26T06:01:41.250Z,8.46
2019-04-26T06:02:41.284Z,8.37
2019-04-26T06:03:41.237Z,8.43
2019-04-26T06:04:41.230Z,8.45
2019-04-26T06:05:41.215Z,8.49
2019-04-26T06:06:41.197Z,8.46
2019-04-26T06:07:41.187Z,8.55
2019-04-26T06:08:41.175Z,8.52
2019-04-26T06:09:41.194Z,8.57
2019-04-26T06:10:41.153Z,8.52
2019-04-26T06:11:41.143Z,8.46
2019-04-26T06:12:41.133Z,8.47
2019-04-26T06:13:41.120Z,8.49
2019-04-26T06:14:41.120Z,8.52
2019-04-26T06:15:41.117Z,8.42
2019-04-26T06:16:41.105Z,8.37
2019-04-26T06:17:41.094Z,8.42
2019-04-26T06:18:41.078Z,8.39
2019-04-26T06:19:41.110Z,8.45
2019-04-26T06:20:41.048Z,8.42
2019-04-26T06:21:41.034Z,8.43
2019-04-26T06:22:41.022Z,8.52
2019-04-26T06:23:41.012Z,8.54
2019-04-26T06:24:41.011Z,8.50
2019-04-26T06:25:41.577Z,8.58
2019-04-26T06:26:41.266Z,8.61
2019-04-26T06:27:40.988Z,8.60
2019-04-26T06:28:40.957Z,8.67
2019-04-26T06:29:40.957Z,8.61
2019-04-26T06:30:45.578Z,8.67
2019-04-26T06:31:41.083Z,8.71
2019-04-26T06:32:41.048Z,8.73
2019-04-26T06:33:40.904Z,8.71
2019-04-26T06:34:41.129Z,8.76
2019-04-26T06:35:40.891Z,8.73
2019-04-26T06:36:40.901Z,8.63
2019-04-26T06:37:40.863Z,8.45
2019-04-26T06:38:44.148Z,8.47
2019-04-26T06:39:40.899Z,8.60
2019-04-26T06:40:42.093Z,8.54
2019-04-26T06:41:41.175Z,8.50
2019-04-26T06:42:40.808Z,8.46
2019-04-26T06:43:40.798Z,8.52
2019-04-26T06:44:41.882Z,8.57
2019-04-26T06:45:40.778Z,8.49
2019-04-26T06:46:40.955Z,8.47
2019-04-26T06:47:40.777Z,8.42
2019-04-26T06:48:40.991Z,8.45
2019-04-26T06:49:40.961Z,8.34
2019-04-26T06:50:40.732Z,8.31
2019-04-26T06:51:40.709Z,8.36
2019-04-26T06:52:40.700Z,8.37
2019-04-26T06:53:40.688Z,8.36
2019-04-26T06:54:40.689Z,8.36
2019-04-26T06:55:40.667Z,8.42
2019-04-26T06:56:40.669Z,8.46
2019-04-26T06:57:40.661Z,8.43
2019-04-26T06:58:40.643Z,8.52
2019-04-26T06:59:40.659Z,8.57
2019-04-26T07:00:40.617Z,8.54
2019-04-26T07:01:40.601Z,8.63
2019-04-26T07:02:41.468Z,8.52
2019-04-26T07:03:40.579Z,8.57
2019-04-26T07:04:40.580Z,8.54
2019-04-26T07:05:40.564Z,8.49
2019-04-26T07:06:40.665Z,8.50
2019-04-26T07:07:42.108Z,8.61
2019-04-26T07:08:40.532Z,8.75
2019-04-26T07:09:40.535Z,8.71
2019-04-26T07:10:40.525Z,8.85
2019-04-26T07:11:40.514Z,8.76
2019-04-26T07:12:40.484Z,8.83
2019-04-26T07:13:40.485Z,8.82
2019-04-26T07:14:40.626Z,8.97
2019-04-26T07:15:40.918Z,8.89
2019-04-26T07:16:40.451Z,8.89
2019-04-26T07:17:40.493Z,8.86
2019-04-26T07:18:40.417Z,8.86
2019-04-26T07:19:40.409Z,8.82
2019-04-26T07:20:40.424Z,8.85
2019-04-26T07:21:40.389Z,8.85
2019-04-26T07:22:40.373Z,8.80
2019-04-26T07:23:40.383Z,8.71
2019-04-26T07:24:40.354Z,8.71
2019-04-26T07:25:40.350Z,8.68
2019-04-26T07:26:40.338Z,8.76
2019-04-26T07:27:40.330Z,8.71
2019-04-26T07:28:40.311Z,8.68
2019-04-26T07:29:40.306Z,8.67
2019-04-26T07:30:40.304Z,8.61
2019-04-26T07:31:40.278Z,8.73
2019-04-26T07:32:40.292Z,8.68
2019-04-26T07:33:40.295Z,8.73
2019-04-26T07:34:44.625Z,8.79
2019-04-26T07:35:40.246Z,8.83
2019-04-26T07:36:40.220Z,8.75
2019-04-26T07:37:40.768Z,8.78
2019-04-26T07:38:40.232Z,8.86
2019-04-26T07:39:40.254Z,8.80
2019-04-26T07:40:40.186Z,8.85
2019-04-26T07:41:40.187Z,8.85
2019-04-26T07:42:40.155Z,8.78
2019-04-26T07:43:40.145Z,8.83
2019-04-26T07:44:40.149Z,8.85
2019-04-26T07:45:40.138Z,8.88
2019-04-26T07:46:41.082Z,8.85
2019-04-26T07:47:40.617Z,8.85
2019-04-26T07:48:40.139Z,8.86
2019-04-26T07:49:40.103Z,8.85
2019-04-26T07:50:40.091Z,8.98
2019-04-26T07:51:40.058Z,8.88
2019-04-26T07:52:40.048Z,8.94
2019-04-26T07:53:40.053Z,8.97
2019-04-26T07:54:40.031Z,8.97
2019-04-26T07:55:40.354Z,9.06
2019-04-26T07:56:40.007Z,9.08
2019-04-26T07:57:39.994Z,9.08
2019-04-26T07:58:39.991Z,9.19
2019-04-26T07:59:39.973Z,9.34
2019-04-26T08:00:45.157Z,9.34
2019-04-26T08:01:40.963Z,9.42
2019-04-26T08:02:39.938Z,9.44
2019-04-26T08:03:39.930Z,9.60
2019-04-26T08:04:39.917Z,9.62
2019-04-26T08:05:39.933Z,9.59
2019-04-26T08:06:39.907Z,9.63
2019-04-26T08:07:39.912Z,9.60
2019-04-26T08:08:39.877Z,9.56
2019-04-26T08:09:39.864Z,9.38
2019-04-26T08:10:39.861Z,9.44
2019-04-26T08:11:39.851Z,9.48
2019-04-26T08:12:39.850Z,9.45
2019-04-26T08:13:39.821Z,9.48
2019-04-26T08:14:39.809Z,9.48
2019-04-26T08:15:39.802Z,9.45
2019-04-26T08:16:39.799Z,9.44
2019-04-26T08:17:39.776Z,9.32
2019-04-26T08:18:39.768Z,9.22
2019-04-26T08:19:39.777Z,9.12
2019-04-26T08:20:39.747Z,8.96
2019-04-26T08:21:42.561Z,8.89
2019-04-26T08:22:40.729Z,8.83
2019-04-26T08:23:42.220Z,8.89
2019-04-26T08:24:39.702Z,8.88
2019-04-26T08:25:39.690Z,8.94
2019-04-26T08:26:39.689Z,8.86
2019-04-26T08:27:39.668Z,8.85
2019-04-26T08:28:39.657Z,8.94
2019-04-26T08:29:39.665Z,8.83
2019-04-26T08:30:40.544Z,8.86
2019-04-26T08:31:44.626Z,8.82
2019-04-26T08:32:40.178Z,8.86
2019-04-26T08:33:40.996Z,8.88
2019-04-26T08:34:40.594Z,8.86
2019-04-26T08:35:40.151Z,8.89
2019-04-26T08:36:39.585Z,8.89
2019-04-26T08:37:39.565Z,8.86
2019-04-26T08:38:39.550Z,8.93
2019-04-26T08:39:45.098Z,8.98
2019-04-26T08:40:40.526Z,8.98
2019-04-26T08:41:40.219Z,9.08
2019-04-26T08:42:39.508Z,9.08
2019-04-26T08:43:39.560Z,9.22
2019-04-26T08:44:39.492Z,9.16
2019-04-26T08:45:40.533Z,9.22
2019-04-26T08:46:39.479Z,9.22
2019-04-26T08:47:39.452Z,9.20
2019-04-26T08:48:39.440Z,9.26
2019-04-26T08:49:40.082Z,9.32
2019-04-26T08:50:42.172Z,9.31
2019-04-26T08:51:39.418Z,9.34
2019-04-26T08:52:39.413Z,9.37
2019-04-26T08:53:39.397Z,9.26
2019-04-26T08:54:39.374Z,9.19
2019-04-26T08:55:39.365Z,9.26
2019-04-26T08:56:39.369Z,9.22
2019-04-26T08:57:39.346Z,9.38
2019-04-26T08:58:39.330Z,9.41
2019-04-26T08:59:39.317Z,9.35
2019-04-26T09:00:39.312Z,9.41
2019-04-26T09:01:42.061Z,9.44
2019-04-26T09:02:39.288Z,9.49
2019-04-26T09:03:39.283Z,9.59
2019-04-26T09:04:39.263Z,9.63
2019-04-26T09:05:39.256Z,9.60
2019-04-26T09:06:39.255Z,9.71
2019-04-26T09:07:39.240Z,9.86
2019-04-26T09:08:43.181Z,9.93
2019-04-26T09:09:39.212Z,9.93
2019-04-26T09:10:42.963Z,10.01
2019-04-26T09:11:39.241Z,9.86
2019-04-26T09:12:39.198Z,10.02
2019-04-26T09:13:39.174Z,9.99
2019-04-26T09:14:39.154Z,10.06
2019-04-26T09:15:40.662Z,10.07
2019-04-26T09:16:49.843Z,10.11
2019-04-26T09:17:40.123Z,10.09
2019-04-26T09:18:43.544Z,9.98
2019-04-26T09:19:39.101Z,9.98
2019-04-26T09:20:42.928Z,10.10
2019-04-26T09:21:40.107Z,10.14
2019-04-26T09:22:39.067Z,10.25
2019-04-26T09:23:40.310Z,10.32
2019-04-26T09:24:39.053Z,10.28
2019-04-26T09:25:39.486Z,10.34
2019-04-26T09:26:42.406Z,10.42
2019-04-26T09:27:40.036Z,10.46
2019-04-26T09:28:39.002Z,10.51
2019-04-26T09:29:38.997Z,10.31
2019-04-26T09:30:42.281Z,10.20
2019-04-26T09:31:39.979Z,10.28
2019-04-26T09:32:38.969Z,10.31
2019-04-26T09:33:38.964Z,10.39
2019-04-26T09:34:41.215Z,10.32
2019-04-26T09:35:38.926Z,10.35
2019-04-26T09:36:38.919Z,10.34
2019-04-26T09:37:38.913Z,10.43
2019-04-26T09:38:38.894Z,10.47
2019-04-26T09:39:41.632Z,10.46
2019-04-26T09:40:38.880Z,10.65
2019-04-26T09:41:38.867Z,10.63
2019-04-26T09:42:39.697Z,10.73
2019-04-26T09:43:38.839Z,10.76
2019-04-26T09:44:41.431Z,10.60
2019-04-26T09:45:38.815Z,10.46
2019-04-26T09:46:38.814Z,10.52
2019-04-26T09:47:38.807Z,10.54
2019-04-26T09:48:38.787Z,10.57
2019-04-26T09:49:41.200Z,10.54
2019-04-26T09:50:38.770Z,10.44
2019-04-26T09:51:39.087Z,10.49
2019-04-26T09:52:38.752Z,10.38
2019-04-26T09:53:39.529Z,10.34
2019-04-26T09:54:38.719Z,10.34
2019-04-26T09:55:38.711Z,10.28
2019-04-26T09:56:38.698Z,10.32
2019-04-26T09:57:38.722Z,10.24
2019-04-26T09:58:38.683Z,10.34
2019-04-26T09:59:40.008Z,10.26
2019-04-26T10:00:38.655Z,10.24
2019-04-26T10:01:38.648Z,10.31
2019-04-26T10:02:38.672Z,10.22
2019-04-26T10:03:38.624Z,10.04
2019-04-26T10:04:38.611Z,10.10
2019-04-26T10:05:38.614Z,10.06
2019-04-26T10:06:38.590Z,10.16
2019-04-26T10:07:38.966Z,10.07
2019-04-26T10:08:38.570Z,10.07
2019-04-26T10:09:38.582Z,10.10
2019-04-26T10:10:38.549Z,10.17
2019-04-26T10:11:39.581Z,10.17
2019-04-26T10:12:38.539Z,10.22
2019-04-26T10:13:38.515Z,10.20
2019-04-26T10:14:38.507Z,10.17
2019-04-26T10:15:39.124Z,10.14
2019-04-26T10:16:42.142Z,10.17
2019-04-26T10:17:38.479Z,10.07
2019-04-26T10:18:38.461Z,10.04
2019-04-26T10:19:38.450Z,10.11
2019-04-26T10:20:38.439Z,10.14
2019-04-26T10:21:38.428Z,10.11
2019-04-26T10:22:38.435Z,9.98
2019-04-26T10:23:38.424Z,9.98
2019-04-26T10:24:38.424Z,9.95
2019-04-26T10:25:38.407Z,9.96
2019-04-26T10:26:38.385Z,9.88
2019-04-26T10:27:40.888Z,9.89
2019-04-26T10:28:38.351Z,9.88
2019-04-26T10:29:38.339Z,9.80
2019-04-26T10:30:42.242Z,9.68
2019-04-26T10:31:38.315Z,9.81
2019-04-26T10:32:38.314Z,9.70
2019-04-26T10:33:38.294Z,9.73
2019-04-26T10:34:38.301Z,9.77
2019-04-26T10:35:38.271Z,9.75
2019-04-26T10:36:38.262Z,9.80
2019-04-26T10:37:39.620Z,9.89
2019-04-26T10:38:38.240Z,9.91
2019-04-26T10:39:38.232Z,10.04
2019-04-26T10:40:38.217Z,10.01
2019-04-26T10:41:38.209Z,10.04
2019-04-26T10:42:38.200Z,10.17
2019-04-26T10:43:38.193Z,10.24
2019-04-26T10:44:39.816Z,10.28
2019-04-26T10:45:38.199Z,10.35
2019-04-26T10:46:38.152Z,10.42
2019-04-26T10:47:38.608Z,10.46
2019-04-26T10:48:38.149Z,10.70
2019-04-26T10:49:38.122Z,10.63
2019-04-26T10:50:38.121Z,10.76
2019-04-26T10:51:38.571Z,10.78
2019-04-26T10:52:38.108Z,10.98
2019-04-26T10:53:38.093Z,10.88
2019-04-26T10:54:41.191Z,10.91
2019-04-26T10:55:38.064Z,11.03
2019-04-26T10:56:38.046Z,11.09
2019-04-26T10:57:38.033Z,11.26
2019-04-26T10:58:38.084Z,11.33
2019-04-26T10:59:39.772Z,11.13
2019-04-26T11:00:39.024Z,11.09
2019-04-26T11:01:37.989Z,11.17
2019-04-26T11:02:37.978Z,11.08
2019-04-26T11:03:37.980Z,11.08
2019-04-26T11:04:41.408Z,11.21
2019-04-26T11:05:37.945Z,11.27
2019-04-26T11:06:37.940Z,11.20
2019-04-26T11:07:37.923Z,11.45
2019-04-26T11:08:38.020Z,11.54
2019-04-26T11:09:37.900Z,11.59
2019-04-26T11:10:48.099Z,11.63
2019-04-26T11:11:38.898Z,11.88
2019-04-26T11:12:39.580Z,12.03
2019-04-26T11:13:38.871Z,12.33
2019-04-26T11:14:37.846Z,12.38
2019-04-26T11:15:37.834Z,12.40
2019-04-26T11:16:41.267Z,12.59
2019-04-26T11:17:37.817Z,12.54
2019-04-26T11:18:37.821Z,12.56
2019-04-26T11:19:37.827Z,12.54
2019-04-26T11:20:41.466Z,12.40
2019-04-26T11:21:38.770Z,12.46
2019-04-26T11:22:39.069Z,12.58
2019-04-26T11:23:41.010Z,12.52
2019-04-26T11:24:38.736Z,12.66
2019-04-26T11:25:37.729Z,12.69
2019-04-26T11:26:37.722Z,12.67
2019-04-26T11:27:40.066Z,12.46
2019-04-26T11:28:38.723Z,12.48
2019-04-26T11:29:37.685Z,12.40
2019-04-26T11:30:37.672Z,12.43
2019-04-26T11:31:37.827Z,12.62
2019-04-26T11:32:38.212Z,12.44
2019-04-26T11:33:44.701Z,12.55
2019-04-26T11:34:38.661Z,12.84
2019-04-26T11:35:37.620Z,12.91
2019-04-26T11:36:41.643Z,12.94
2019-04-26T11:37:38.605Z,13.03
2019-04-26T11:38:37.613Z,12.87
2019-04-26T11:39:40.458Z,13.03
2019-04-26T11:40:37.567Z,13.10
2019-04-26T11:41:39.020Z,13.04
2019-04-26T11:42:37.542Z,13.12
2019-04-26T11:43:37.538Z,13.16
2019-04-26T11:44:37.519Z,13.19
2019-04-26T11:45:37.508Z,13.36
2019-04-26T11:46:44.484Z,13.29
2019-04-26T11:47:54.242Z,13.25
2019-04-26T11:48:38.491Z,13.17
2019-04-26T11:49:41.430Z,13.25
2019-04-26T11:50:38.461Z,12.99
2019-04-26T11:51:37.440Z,12.84
2019-04-26T11:52:37.464Z,12.89
2019-04-26T11:53:40.654Z,12.87
2019-04-26T11:54:38.418Z,12.99
2019-04-26T11:55:37.398Z,13.19
2019-04-26T11:56:38.713Z,13.27
2019-04-26T11:57:39.948Z,13.10
2019-04-26T11:58:37.364Z,13.29
2019-04-26T11:59:37.370Z,13.10
2019-04-26T12:00:37.344Z,13.04
2019-04-26T12:01:40.375Z,12.91
2019-04-26T12:02:37.321Z,12.79
2019-04-26T12:03:37.311Z,12.77
2019-04-26T12:04:37.310Z,12.74
2019-04-26T12:05:37.287Z,12.92
2019-04-26T12:06:37.275Z,13.10
2019-04-26T12:07:37.265Z,13.17
2019-04-26T12:08:37.254Z,13.27
2019-04-26T12:09:37.270Z,13.32
2019-04-26T12:10:40.583Z,13.39
2019-04-26T12:11:48.965Z,13.57
2019-04-26T12:12:38.208Z,13.53
2019-04-26T12:13:37.199Z,13.41
2019-04-26T12:14:37.212Z,13.35
2019-04-26T12:15:39.066Z,13.27
2019-04-26T12:16:48.009Z,13.25
2019-04-26T12:17:38.190Z,13.16
2019-04-26T12:18:40.207Z,13.22
2019-04-26T12:19:38.150Z,12.96
2019-04-26T12:20:37.120Z,13.04
2019-04-26T12:21:37.111Z,13.24
2019-04-26T12:22:39.349Z,13.21
2019-04-26T12:23:38.101Z,13.39
2019-04-26T12:24:37.089Z,13.51
2019-04-26T12:25:38.671Z,13.17
2019-04-26T12:26:42.960Z,13.25
2019-04-26T12:27:38.134Z,12.94
2019-04-26T12:28:39.920Z,12.88
2019-04-26T12:29:37.031Z,12.81
2019-04-26T12:30:37.013Z,12.79
2019-04-26T12:31:36.998Z,12.70
2019-04-26T12:32:36.988Z,12.99
2019-04-26T12:33:39.048Z,13.01
2019-04-26T12:34:37.978Z,12.89
2019-04-26T12:35:36.954Z,12.98
2019-04-26T12:36:36.944Z,13.03
2019-04-26T12:37:36.934Z,13.03
2019-04-26T12:38:36.923Z,13.17
2019-04-26T12:39:38.320Z,13.32
2019-04-26T12:40:36.897Z,13.50
2019-04-26T12:41:40.373Z,13.43
2019-04-26T12:42:36.879Z,13.44
2019-04-26T12:43:36.869Z,13.54
2019-04-26T12:44:40.925Z,13.53
2019-04-26T12:45:36.900Z,13.39
2019-04-26T12:46:36.839Z,13.47
2019-04-26T12:47:38.540Z,13.39
2019-04-26T12:48:36.809Z,13.44
2019-04-26T12:49:36.798Z,13.36
2019-04-26T12:50:37.792Z,13.38
2019-04-26T12:51:38.308Z,13.59
2019-04-26T12:52:37.559Z,13.55
2019-04-26T12:53:36.762Z,13.51
2019-04-26T12:54:38.981Z,13.65
2019-04-26T12:55:37.740Z,13.59
2019-04-26T12:56:36.727Z,13.84
2019-04-26T12:57:40.665Z,13.91
2019-04-26T12:58:37.697Z,13.93
2019-04-26T12:59:44.116Z,13.94
2019-04-26T13:00:38.809Z,13.96
2019-04-26T13:01:36.681Z,14.06
2019-04-26T13:02:36.654Z,14.09
2019-04-26T13:03:36.653Z,14.13
2019-04-26T13:04:40.299Z,14.31
2019-04-26T13:05:36.705Z,14.45
2019-04-26T13:06:36.610Z,14.64
2019-04-26T13:07:38.998Z,14.71
2019-04-26T13:08:37.591Z,14.82
2019-04-26T13:09:36.592Z,15.09
2019-04-26T13:10:36.913Z,15.09
2019-04-26T13:11:48.416Z,15.18
2019-04-26T13:12:37.546Z,14.79
2019-04-26T13:13:36.539Z,14.79
2019-04-26T13:14:38.796Z,14.74
2019-04-26T13:15:37.531Z,14.78
2019-04-26T13:16:36.506Z,14.82
2019-04-26T13:17:37.451Z,14.90
2019-04-26T13:18:36.536Z,14.52
2019-04-26T13:19:36.473Z,14.36
2019-04-26T13:20:36.474Z,14.38
2019-04-26T13:21:37.276Z,14.39
2019-04-26T13:22:45.929Z,14.41
2019-04-26T13:23:37.431Z,14.39
2019-04-26T13:24:39.780Z,14.56
2019-04-26T13:25:40.488Z,14.90
2019-04-26T13:26:36.527Z,14.75
2019-04-26T13:27:36.390Z,14.64
2019-04-26T13:28:36.379Z,14.69
2019-04-26T13:29:36.369Z,14.83
2019-04-26T13:30:36.400Z,15.12
2019-04-26T13:31:36.346Z,15.03
2019-04-26T13:32:36.332Z,15.03
2019-04-26T13:33:36.329Z,15.19
2019-04-26T13:34:37.238Z,15.22
2019-04-26T13:35:36.301Z,15.01
2019-04-26T13:36:36.299Z,14.97
2019-04-26T13:37:37.014Z,15.03
2019-04-26T13:38:39.465Z,14.91
2019-04-26T13:39:37.256Z,14.82
2019-04-26T13:40:36.245Z,14.80
2019-04-26T13:41:38.785Z,14.48
2019-04-26T13:42:36.226Z,14.54
2019-04-26T13:43:36.211Z,14.69
2019-04-26T13:44:39.415Z,14.66
2019-04-26T13:45:36.190Z,14.82
2019-04-26T13:46:36.208Z,14.87
2019-04-26T13:47:36.167Z,14.63
2019-04-26T13:48:39.172Z,14.49
2019-04-26T13:49:37.151Z,14.24
2019-04-26T13:50:36.134Z,14.26
2019-04-26T13:51:36.133Z,14.46
2019-04-26T13:52:36.119Z,14.53
2019-04-26T13:53:36.100Z,14.45
2019-04-26T13:54:36.096Z,14.53
2019-04-26T13:55:36.083Z,14.49
2019-04-26T13:56:37.533Z,14.60
2019-04-26T13:57:36.058Z,14.49
2019-04-26T13:58:36.048Z,14.64
2019-04-26T13:59:36.061Z,14.90
2019-04-26T14:00:36.027Z,14.79
2019-04-26T14:01:36.026Z,14.85
2019-04-26T14:02:36.012Z,14.71
2019-04-26T14:03:36.004Z,14.74
2019-04-26T14:04:37.167Z,14.79
2019-04-26T14:05:35.973Z,14.69
2019-04-26T14:06:35.975Z,14.71
2019-04-26T14:07:35.953Z,14.94
2019-04-26T14:08:35.942Z,14.82
2019-04-26T14:09:35.930Z,14.75
2019-04-26T14:10:35.928Z,14.64
2019-04-26T14:11:35.932Z,14.74
2019-04-26T14:12:35.899Z,14.74
2019-04-26T14:13:35.910Z,14.74
2019-04-26T14:14:35.906Z,14.83
2019-04-26T14:15:39.444Z,14.44
2019-04-26T14:16:36.868Z,14.44
2019-04-26T14:17:35.847Z,14.44
2019-04-26T14:18:39.151Z,14.46
2019-04-26T14:19:35.826Z,14.53
2019-04-26T14:20:35.818Z,14.48
2019-04-26T14:21:35.812Z,14.38
2019-04-26T14:22:37.026Z,14.29
2019-04-26T14:23:35.816Z,14.30
2019-04-26T14:24:35.771Z,14.39
2019-04-26T14:25:35.759Z,14.30
2019-04-26T14:26:40.012Z,14.38
2019-04-26T14:27:36.735Z,14.52
2019-04-26T14:28:35.743Z,14.44
2019-04-26T14:29:35.713Z,14.66
2019-04-26T14:30:37.429Z,14.63
2019-04-26T14:31:36.701Z,14.53
2019-04-26T14:32:35.682Z,14.42
2019-04-26T14:33:35.684Z,14.46
2019-04-26T14:34:36.172Z,14.49
2019-04-26T14:35:35.659Z,14.60
2019-04-26T14:36:35.657Z,14.57
2019-04-26T14:37:35.631Z,14.66
2019-04-26T14:38:40.090Z,14.82
2019-04-26T14:39:49.525Z,14.78
2019-04-26T14:40:39.339Z,14.75
2019-04-26T14:41:36.676Z,14.78
2019-04-26T14:42:42.228Z,14.82
2019-04-26T14:43:40.833Z,14.82
2019-04-26T14:44:35.549Z,14.94
2019-04-26T14:45:36.460Z,14.90
2019-04-26T14:46:47.961Z,14.91
2019-04-26T14:47:46.745Z,14.94
2019-04-26T14:48:40.170Z,14.74
2019-04-26T14:49:39.173Z,14.64
2019-04-26T14:50:36.484Z,14.66
2019-04-26T14:51:35.488Z,14.74
2019-04-26T14:52:35.474Z,14.61
2019-04-26T14:53:36.344Z,14.61
2019-04-26T14:54:35.445Z,14.53
2019-04-26T14:55:35.428Z,14.35
2019-04-26T14:56:35.445Z,14.27
2019-04-26T14:57:35.415Z,14.29
2019-04-26T14:58:35.396Z,14.08
2019-04-26T14:59:35.387Z,14.19
2019-04-26T15:00:35.375Z,14.45
2019-04-26T15:01:35.384Z,14.30
2019-04-26T15:02:35.372Z,14.13
2019-04-26T15:03:35.346Z,14.13
2019-04-26T15:04:35.329Z,14.05
2019-04-26T15:05:38.265Z,13.94
2019-04-26T15:06:36.309Z,13.98
2019-04-26T15:07:48.627Z,14.04
2019-04-26T15:08:36.287Z,14.09
2019-04-26T15:09:36.622Z,14.13
2019-04-26T15:10:43.991Z,14.17
2019-04-26T15:11:37.149Z,14.39
2019-04-26T15:12:45.919Z,14.41
2019-04-26T15:13:40.402Z,14.16
2019-04-26T15:14:36.266Z,14.09
2019-04-26T15:15:35.224Z,13.93
2019-04-26T15:16:35.205Z,14.06
2019-04-26T15:17:35.200Z,13.90
2019-04-26T15:18:37.099Z,13.84
2019-04-26T15:19:35.321Z,13.79
2019-04-26T15:20:35.152Z,13.93
2019-04-26T15:21:35.142Z,13.98
2019-04-26T15:22:35.168Z,13.88
2019-04-26T15:23:35.133Z,13.91
2019-04-26T15:24:38.563Z,13.90
2019-04-26T15:25:36.787Z,13.96
2019-04-26T15:26:35.087Z,13.96
2019-04-26T15:27:36.287Z,13.76
2019-04-26T15:28:35.069Z,13.69
2019-04-26T15:29:35.055Z,13.83
2019-04-26T15:30:43.212Z,13.90
2019-04-26T15:31:36.039Z,13.98
2019-04-26T15:32:35.400Z,14.04
2019-04-26T15:33:36.118Z,13.91
2019-04-26T15:34:35.023Z,13.90
2019-04-26T15:35:35.875Z,13.91
2019-04-26T15:36:34.986Z,13.87
2019-04-26T15:37:34.977Z,13.91
2019-04-26T15:38:41.267Z,13.93
2019-04-26T15:39:35.950Z,13.90
2019-04-26T15:40:35.191Z,13.91
2019-04-26T15:41:34.934Z,13.91
2019-04-26T15:42:34.970Z,13.93
2019-04-26T15:43:34.908Z,13.88
2019-04-26T15:44:34.892Z,13.72
2019-04-26T15:45:38.753Z,13.63
2019-04-26T15:46:34.875Z,13.80
2019-04-26T15:47:34.862Z,13.80
2019-04-26T15:48:34.861Z,13.90
2019-04-26T15:49:36.819Z,13.90
2019-04-26T15:50:34.892Z,13.86
2019-04-26T15:51:34.934Z,13.71
2019-04-26T15:52:35.625Z,13.69
2019-04-26T15:53:34.809Z,13.71
2019-04-26T15:54:34.806Z,13.75
2019-04-26T15:55:39.926Z,13.68
2019-04-26T15:56:35.770Z,13.69
2019-04-26T15:57:34.817Z,13.69
2019-04-26T15:58:38.635Z,13.51
2019-04-26T15:59:35.731Z,13.68
2019-04-26T16:00:35.409Z,13.63
2019-04-26T16:01:34.726Z,13.72
2019-04-26T16:02:34.724Z,13.88
2019-04-26T16:03:36.865Z,13.93
2019-04-26T16:04:35.737Z,13.84
2019-04-26T16:05:34.664Z,13.91